createdAt,value
2019-01-24T00:00:55.347Z,-1.60
2019-01-24T00:03:22.799Z,-1.70
2019-01-24T00:05:50.199Z,-1.70
2019-01-24T00:08:17.591Z,-1.70
2019-01-24T00:10:45.017Z,-1.70
2019-01-24T00:13:12.419Z,-1.70
2019-01-24T00:15:39.815Z,-1.80
2019-01-24T00:18:09.067Z,-1.80
2019-01-24T00:20:36.450Z,-1.90
2019-01-24T00:23:03.863Z,-1.90
2019-01-24T00:25:31.319Z,-1.90
2019-01-24T00:27:58.800Z,-2.00
2019-01-24T00:30:26.488Z,-1.90
2019-01-24T00:32:53.943Z,-1.90
2019-01-24T00:35:21.345Z,-2.00
2019-01-24T00:37:48.765Z,-1.90
2019-01-24T00:40:17.607Z,-2.00
2019-01-24T00:42:45.009Z,-2.00
2019-01-24T00:45:12.979Z,-2.00
2019-01-24T00:47:40.525Z,-2.00
2019-01-24T00:50:08.920Z,-2.10
2019-01-24T00:52:36.337Z,-2.00
2019-01-24T00:55:06.261Z,-2.00
2019-01-24T00:57:33.673Z,-2.00
2019-01-24T01:00:01.066Z,-2.00
2019-01-24T01:02:28.675Z,-2.00
2019-01-24T01:04:56.069Z,-1.90
2019-01-24T01:07:23.463Z,-2.00
2019-01-24T01:09:51.167Z,-1.90
2019-01-24T01:12:18.583Z,-1.90
2019-01-24T01:14:45.975Z,-1.90
2019-01-24T01:17:13.444Z,-1.90
2019-01-24T01:19:40.821Z,-1.90
2019-01-24T01:22:08.215Z,-2.00
2019-01-24T01:24:35.634Z,-2.00
2019-01-24T01:27:03.515Z,-2.00
2019-01-24T01:29:31.537Z,-1.90
2019-01-24T01:31:59.151Z,-2.00
2019-01-24T01:34:26.551Z,-2.00
2019-01-24T01:36:53.943Z,-2.00
2019-01-24T01:39:21.375Z,-2.00
2019-01-24T01:41:48.792Z,-1.90
2019-01-24T01:44:16.183Z,-1.90
2019-01-24T01:46:43.731Z,-1.90
2019-01-24T01:49:11.123Z,-1.90
2019-01-24T01:51:38.503Z,-1.80
2019-01-24T01:54:06.111Z,-1.90
2019-01-24T01:56:33.495Z,-1.80
2019-01-24T01:59:00.904Z,-1.80
2019-01-24T02:01:28.305Z,-1.80
2019-01-24T02:03:55.699Z,-1.90
2019-01-24T02:06:23.079Z,-1.90
2019-01-24T02:08:50.524Z,-2.00
2019-01-24T02:11:17.970Z,-2.00
2019-01-24T02:13:45.361Z,-2.00
2019-01-24T02:16:12.786Z,-2.00
2019-01-24T02:18:40.202Z,-2.00
2019-01-24T02:21:07.595Z,-1.90
2019-01-24T02:23:35.023Z,-1.90
2019-01-24T02:26:02.418Z,-1.90
2019-01-24T02:28:30.066Z,-1.90
2019-01-24T02:30:58.559Z,-1.80
2019-01-24T02:33:25.943Z,-1.80
2019-01-24T02:35:53.335Z,-1.80
2019-01-24T02:38:20.780Z,-1.70
2019-01-24T02:40:48.168Z,-1.70
2019-01-24T02:43:15.559Z,-1.60
2019-01-24T02:45:42.985Z,-1.60
2019-01-24T02:48:10.383Z,-1.70
2019-01-24T02:50:37.786Z,-1.60
2019-01-24T02:53:05.212Z,-1.70
2019-01-24T02:55:32.616Z,-1.70
2019-01-24T02:58:00.016Z,-1.70
2019-01-24T03:00:27.575Z,-1.60
2019-01-24T03:02:54.966Z,-1.70
2019-01-24T03:05:22.563Z,-1.70
2019-01-24T03:07:50.378Z,-1.60
2019-01-24T03:10:17.767Z,-1.60
2019-01-24T03:12:45.169Z,-1.70
2019-01-24T03:15:14.609Z,-1.70
2019-01-24T03:17:42.391Z,-1.70
2019-01-24T03:20:10.231Z,-1.70
2019-01-24T03:22:37.681Z,-1.70
2019-01-24T03:25:05.558Z,-1.60
2019-01-24T03:27:33.166Z,-1.60
2019-01-24T03:30:01.742Z,-1.50
2019-01-24T03:32:29.128Z,-1.60
2019-01-24T03:34:56.520Z,-1.60
2019-01-24T03:37:24.228Z,-1.60
2019-01-24T03:39:51.616Z,-1.60
2019-01-24T03:42:19.007Z,-1.60
2019-01-24T03:44:46.611Z,-1.60
2019-01-24T03:47:14.016Z,-1.60
2019-01-24T03:49:41.416Z,-1.60
2019-01-24T03:52:08.874Z,-1.50
2019-01-24T03:54:36.269Z,-1.60
2019-01-24T03:57:03.664Z,-1.60
2019-01-24T03:59:31.117Z,-1.60
2019-01-24T04:01:58.511Z,-1.60
2019-01-24T04:04:25.895Z,-1.60
2019-01-24T04:06:53.318Z,-1.60
2019-01-24T04:09:20.720Z,-1.50
2019-01-24T04:11:48.118Z,-1.50
2019-01-24T04:14:15.852Z,-1.60
2019-01-24T04:16:43.247Z,-1.60
2019-01-24T04:19:10.642Z,-1.60
2019-01-24T04:21:38.071Z,-1.60
2019-01-24T04:24:05.470Z,-1.60
2019-01-24T04:26:32.855Z,-1.70
2019-01-24T04:29:00.285Z,-1.70
2019-01-24T04:31:28.090Z,-1.70
2019-01-24T04:33:55.490Z,-1.70
2019-01-24T04:36:22.946Z,-1.70
2019-01-24T04:38:50.346Z,-1.70
2019-01-24T04:41:17.737Z,-1.70
2019-01-24T04:43:45.292Z,-1.70
2019-01-24T04:46:12.702Z,-1.70
2019-01-24T04:48:40.095Z,-1.60
2019-01-24T04:51:07.687Z,-1.60
2019-01-24T04:53:35.075Z,-1.60
2019-01-24T04:56:02.472Z,-1.60
2019-01-24T04:58:29.900Z,-1.60
2019-01-24T05:00:57.301Z,-1.60
2019-01-24T05:03:24.699Z,-1.60
2019-01-24T05:05:52.127Z,-1.50
2019-01-24T05:08:19.523Z,-1.50
2019-01-24T05:10:46.925Z,-1.50
2019-01-24T05:13:14.496Z,-1.50
2019-01-24T05:15:41.895Z,-1.50
2019-01-24T05:18:09.298Z,-1.50
2019-01-24T05:20:36.728Z,-1.50
2019-01-24T05:23:04.218Z,-1.50
2019-01-24T05:25:31.616Z,-1.50
2019-01-24T05:27:59.065Z,-1.50
2019-01-24T05:30:27.920Z,-1.50
2019-01-24T05:32:55.495Z,-1.50
2019-01-24T05:35:23.287Z,-1.50
2019-01-24T05:37:50.682Z,-1.40
2019-01-24T05:40:18.082Z,-1.30
2019-01-24T05:42:45.522Z,-1.30
2019-01-24T05:45:13.127Z,-1.30
2019-01-24T05:47:40.530Z,-1.30
2019-01-24T05:50:09.092Z,-1.30
2019-01-24T05:52:36.505Z,-1.30
2019-01-24T05:55:04.690Z,-1.30
2019-01-24T05:57:32.146Z,-1.30
2019-01-24T05:59:59.545Z,-1.20
2019-01-24T06:02:27.159Z,-1.30
2019-01-24T06:04:55.035Z,-1.30
2019-01-24T06:07:22.424Z,-1.30
2019-01-24T06:09:49.822Z,-1.30
2019-01-24T06:12:17.255Z,-1.30
2019-01-24T06:14:44.655Z,-1.20
2019-01-24T06:17:12.058Z,-1.20
2019-01-24T06:19:39.495Z,-1.20
2019-01-24T06:22:06.938Z,-1.20
2019-01-24T06:24:34.450Z,-1.20
2019-01-24T06:27:01.987Z,-1.20
2019-01-24T06:29:29.666Z,-1.10
2019-01-24T06:31:57.269Z,-1.10
2019-01-24T06:34:24.722Z,-1.20
2019-01-24T06:36:52.135Z,-1.10
2019-01-24T06:39:19.530Z,-1.10
2019-01-24T06:41:47.071Z,-1.00
2019-01-24T06:44:14.459Z,-1.00
2019-01-24T06:46:41.884Z,-1.00
2019-01-24T06:49:09.321Z,-0.90
2019-01-24T06:51:36.738Z,-0.90
2019-01-24T06:54:04.276Z,-0.90
2019-01-24T06:56:31.850Z,-0.90
2019-01-24T06:58:59.239Z,-0.90
2019-01-24T07:01:26.634Z,-0.90
2019-01-24T07:03:54.095Z,-0.90
2019-01-24T07:06:21.502Z,-0.80
2019-01-24T07:08:48.898Z,-0.90
2019-01-24T07:11:16.513Z,-0.80
2019-01-24T07:13:43.919Z,-0.80
2019-01-24T07:16:11.328Z,-0.80
2019-01-24T07:18:38.904Z,-0.80
2019-01-24T07:21:06.299Z,-0.80
2019-01-24T07:23:33.687Z,-0.90
2019-01-24T07:26:01.143Z,-0.90
2019-01-24T07:28:28.532Z,-1.00
2019-01-24T07:30:56.207Z,-1.00
2019-01-24T07:33:24.196Z,-0.90
2019-01-24T07:35:51.583Z,-0.80
2019-01-24T07:38:18.986Z,-0.80
2019-01-24T07:40:46.498Z,-0.80
2019-01-24T07:43:13.901Z,-0.80
2019-01-24T07:45:41.289Z,-0.70
2019-01-24T07:48:08.735Z,-0.80
2019-01-24T07:50:36.119Z,-0.70
2019-01-24T07:53:05.943Z,-0.70
2019-01-24T07:55:33.412Z,-0.60
2019-01-24T07:58:00.822Z,-0.60
2019-01-24T08:00:28.550Z,-0.50
2019-01-24T08:02:56.193Z,-0.60
2019-01-24T08:05:24.198Z,-0.60
2019-01-24T08:07:51.593Z,-0.50
2019-01-24T08:10:19.520Z,-0.50
2019-01-24T08:12:47.121Z,-0.40
2019-01-24T08:15:15.878Z,-0.50
2019-01-24T08:17:43.619Z,-0.40
2019-01-24T08:20:13.798Z,-0.40
2019-01-24T08:22:41.191Z,-0.40
2019-01-24T08:25:09.002Z,-0.60
2019-01-24T08:27:36.392Z,-0.60
2019-01-24T08:30:07.900Z,-0.60
2019-01-24T08:32:38.194Z,-0.70
2019-01-24T08:35:06.306Z,-0.60
2019-01-24T08:37:33.698Z,-0.60
2019-01-24T08:40:01.263Z,-0.50
2019-01-24T08:42:28.776Z,-0.50
2019-01-24T08:44:56.183Z,-0.40
2019-01-24T08:47:23.618Z,-0.40
2019-01-24T08:49:51.015Z,-0.40
2019-01-24T08:52:18.432Z,-0.30
2019-01-24T08:54:45.874Z,-0.40
2019-01-24T08:57:13.280Z,-0.40
2019-01-24T08:59:40.582Z,-0.40
2019-01-24T09:02:08.007Z,-0.40
2019-01-24T09:04:35.407Z,-0.40
2019-01-24T09:07:02.807Z,-0.40
2019-01-24T09:09:30.250Z,-0.40
2019-01-24T09:11:57.655Z,-0.30
2019-01-24T09:14:25.049Z,-0.20
2019-01-24T09:16:52.554Z,-0.10
2019-01-24T09:19:19.937Z,0.00
2019-01-24T09:21:47.335Z,0.10
2019-01-24T09:24:14.800Z,0.20
2019-01-24T09:26:42.200Z,0.20
2019-01-24T09:29:09.594Z,0.30
2019-01-24T09:31:37.322Z,0.20
2019-01-24T09:34:04.890Z,0.30
2019-01-24T09:36:32.298Z,0.40
2019-01-24T09:38:59.731Z,0.40
2019-01-24T09:41:27.122Z,0.50
2019-01-24T09:43:54.511Z,0.50
2019-01-24T09:46:22.092Z,0.60
2019-01-24T09:48:49.496Z,0.60
2019-01-24T09:51:16.896Z,0.70
2019-01-24T09:53:44.885Z,0.80
2019-01-24T09:56:12.271Z,0.80
2019-01-24T09:58:39.703Z,0.80
2019-01-24T10:01:07.383Z,0.80
2019-01-24T10:03:34.835Z,0.90
2019-01-24T10:06:02.240Z,0.90
2019-01-24T10:08:29.894Z,0.90
2019-01-24T10:10:57.863Z,0.90
2019-01-24T10:13:25.239Z,1.00
2019-01-24T10:15:52.695Z,1.10
2019-01-24T10:18:21.678Z,1.20
2019-01-24T10:20:49.207Z,1.20
2019-01-24T10:23:16.663Z,1.20
2019-01-24T10:25:44.089Z,1.30
2019-01-24T10:28:11.495Z,1.20
2019-01-24T10:30:43.071Z,1.30
2019-01-24T10:33:08.319Z,1.30
2019-01-24T10:35:35.786Z,1.20
2019-01-24T10:38:03.555Z,1.20
2019-01-24T10:40:32.320Z,1.30
2019-01-24T10:43:00.045Z,1.40
2019-01-24T10:45:27.832Z,1.40
2019-01-24T10:47:55.223Z,1.50
2019-01-24T10:50:23.499Z,1.50
2019-01-24T10:52:51.141Z,1.50
2019-01-24T10:55:20.480Z,1.40
2019-01-24T10:57:48.644Z,1.40
2019-01-24T11:00:22.468Z,1.40
2019-01-24T11:02:49.851Z,1.40
2019-01-24T11:05:17.543Z,1.40
2019-01-24T11:07:45.127Z,1.50
2019-01-24T11:10:13.131Z,1.50
2019-01-24T11:12:40.529Z,1.40
2019-01-24T11:15:11.115Z,1.50
2019-01-24T11:17:38.525Z,1.50
2019-01-24T11:20:07.903Z,1.50
2019-01-24T11:22:35.527Z,1.60
2019-01-24T11:25:03.323Z,1.70
2019-01-24T11:27:30.738Z,1.90
2019-01-24T11:29:58.535Z,2.10
2019-01-24T11:32:26.881Z,2.20
2019-01-24T11:34:55.015Z,2.30
2019-01-24T11:37:22.561Z,2.30
2019-01-24T11:39:50.143Z,2.40
2019-01-24T11:42:17.535Z,2.50
2019-01-24T11:44:44.975Z,2.50
2019-01-24T11:47:12.355Z,2.50
2019-01-24T11:49:39.751Z,2.50
2019-01-24T11:52:07.529Z,2.60
2019-01-24T11:54:34.913Z,2.60
2019-01-24T11:57:02.322Z,2.60
2019-01-24T11:59:30.128Z,2.70
2019-01-24T12:01:57.514Z,2.80
2019-01-24T12:04:24.895Z,2.80
2019-01-24T12:06:52.359Z,2.80
2019-01-24T12:09:19.751Z,2.80
2019-01-24T12:11:47.210Z,2.60
2019-01-24T12:14:14.898Z,2.60
2019-01-24T12:16:42.322Z,2.70
2019-01-24T12:19:09.777Z,2.70
2019-01-24T12:21:37.224Z,2.70
2019-01-24T12:24:04.837Z,2.70
2019-01-24T12:26:32.231Z,2.70
2019-01-24T12:28:59.671Z,2.70
2019-01-24T12:31:27.206Z,2.80
2019-01-24T12:33:54.650Z,2.80
2019-01-24T12:36:22.463Z,2.70
2019-01-24T12:38:49.960Z,2.70
2019-01-24T12:41:17.351Z,2.60
2019-01-24T12:43:44.778Z,2.70
2019-01-24T12:46:12.167Z,2.70
2019-01-24T12:48:39.598Z,2.60
2019-01-24T12:51:07.259Z,2.70
2019-01-24T12:53:34.803Z,2.70
2019-01-24T12:56:02.218Z,2.70
2019-01-24T12:58:29.799Z,2.80
2019-01-24T13:00:57.303Z,2.90
2019-01-24T13:03:24.695Z,3.00
2019-01-24T13:05:52.421Z,2.90
2019-01-24T13:08:19.811Z,2.90
2019-01-24T13:10:47.213Z,2.80
2019-01-24T13:13:14.647Z,2.90
2019-01-24T13:15:42.042Z,2.80
2019-01-24T13:18:09.456Z,2.80
2019-01-24T13:20:36.931Z,2.80
2019-01-24T13:23:04.788Z,2.70
2019-01-24T13:25:33.602Z,2.50
2019-01-24T13:28:01.630Z,2.30
2019-01-24T13:30:30.735Z,2.40
2019-01-24T13:32:58.814Z,2.50
2019-01-24T13:35:26.447Z,2.60
2019-01-24T13:37:54.171Z,2.50
2019-01-24T13:40:23.869Z,2.50
2019-01-24T13:42:51.311Z,2.60
2019-01-24T13:45:21.254Z,2.60
2019-01-24T13:47:48.943Z,2.50
2019-01-24T13:50:17.020Z,2.60
2019-01-24T13:52:44.490Z,2.50
2019-01-24T13:55:12.000Z,2.40
2019-01-24T13:57:39.455Z,2.20
2019-01-24T14:00:27.623Z,2.20
2019-01-24T14:02:59.119Z,2.20
2019-01-24T14:05:26.512Z,2.20
2019-01-24T14:07:53.911Z,2.30
2019-01-24T14:10:21.442Z,2.40
2019-01-24T14:12:48.839Z,2.40
2019-01-24T14:15:16.337Z,2.30
2019-01-24T14:17:43.928Z,2.20
2019-01-24T14:20:14.175Z,2.20
2019-01-24T14:22:41.559Z,2.30
2019-01-24T14:25:11.771Z,2.10
2019-01-24T14:27:39.154Z,2.20
2019-01-24T14:30:10.672Z,2.10
2019-01-24T14:32:38.223Z,2.10
2019-01-24T14:35:06.303Z,2.10
2019-01-24T14:37:39.623Z,2.00
2019-01-24T14:40:04.979Z,2.00
2019-01-24T14:42:32.439Z,2.00
2019-01-24T14:44:59.833Z,1.90
2019-01-24T14:47:27.391Z,1.70
2019-01-24T14:49:54.800Z,1.50
2019-01-24T14:52:22.199Z,1.40
2019-01-24T14:54:49.885Z,1.40
2019-01-24T14:57:18.229Z,1.40
2019-01-24T14:59:45.698Z,1.30
2019-01-24T15:02:13.295Z,1.20
2019-01-24T15:04:40.679Z,1.30
2019-01-24T15:07:08.074Z,1.20
2019-01-24T15:09:35.515Z,1.10
2019-01-24T15:12:03.287Z,1.00
2019-01-24T15:14:30.748Z,1.00
2019-01-24T15:16:58.226Z,0.90
2019-01-24T15:19:25.722Z,0.90
2019-01-24T15:21:53.177Z,0.80
2019-01-24T15:24:20.663Z,0.80
2019-01-24T15:26:48.067Z,0.70
2019-01-24T15:29:15.487Z,0.70
2019-01-24T15:31:42.951Z,0.60
2019-01-24T15:34:10.721Z,0.70
2019-01-24T15:36:38.143Z,0.60
2019-01-24T15:39:07.325Z,0.70
2019-01-24T15:41:35.336Z,0.70
2019-01-24T15:44:02.945Z,0.70
2019-01-24T15:46:30.536Z,0.70
2019-01-24T15:48:57.927Z,0.70
2019-01-24T15:51:25.349Z,0.70
2019-01-24T15:53:52.874Z,0.60
2019-01-24T15:56:20.258Z,0.60
2019-01-24T15:58:47.663Z,0.50
2019-01-24T16:01:15.112Z,0.60
2019-01-24T16:03:42.510Z,0.60
2019-01-24T16:06:09.972Z,0.60
2019-01-24T16:08:37.535Z,0.60
2019-01-24T16:11:05.063Z,0.50
2019-01-24T16:13:32.458Z,0.50
2019-01-24T16:15:59.902Z,0.50
2019-01-24T16:18:27.315Z,0.50
2019-01-24T16:20:54.735Z,0.50
2019-01-24T16:23:22.185Z,0.40
2019-01-24T16:25:49.591Z,0.50
2019-01-24T16:28:16.986Z,0.50
2019-01-24T16:30:44.570Z,0.50
2019-01-24T16:33:12.169Z,0.40
2019-01-24T16:35:40.681Z,0.40
2019-01-24T16:38:09.473Z,0.30
2019-01-24T16:40:37.328Z,0.30
2019-01-24T16:43:04.911Z,0.30
2019-01-24T16:45:32.447Z,0.30
2019-01-24T16:47:59.858Z,0.30
2019-01-24T16:50:28.674Z,0.30
2019-01-24T16:52:56.362Z,0.30
2019-01-24T16:55:24.063Z,0.20
2019-01-24T16:57:52.538Z,0.30
2019-01-24T17:00:26.177Z,0.20
2019-01-24T17:02:53.575Z,0.20
2019-01-24T17:05:22.784Z,0.20
2019-01-24T17:07:50.298Z,0.30
2019-01-24T17:10:18.850Z,0.30
2019-01-24T17:12:46.266Z,0.30
2019-01-24T17:15:15.034Z,0.30
2019-01-24T17:17:42.432Z,0.30
2019-01-24T17:20:14.120Z,0.30
2019-01-24T17:22:41.767Z,0.30
2019-01-24T17:25:09.971Z,0.20
2019-01-24T17:27:37.386Z,0.20
2019-01-24T17:30:06.995Z,0.10
2019-01-24T17:32:34.519Z,0.20
2019-01-24T17:35:02.522Z,0.10
2019-01-24T17:37:30.084Z,0.10
2019-01-24T17:39:57.495Z,0.10
2019-01-24T17:42:24.888Z,0.10
2019-01-24T17:44:52.519Z,0.10
2019-01-24T17:47:19.914Z,0.10
2019-01-24T17:49:47.311Z,0.10
2019-01-24T17:52:14.775Z,0.10
2019-01-24T17:54:42.183Z,0.10
2019-01-24T17:57:09.569Z,0.10
2019-01-24T17:59:37.184Z,0.10
2019-01-24T18:02:04.586Z,0.00
2019-01-24T18:04:31.994Z,-0.10
2019-01-24T18:06:59.455Z,-0.10
2019-01-24T18:09:26.877Z,-0.10
2019-01-24T18:11:54.298Z,-0.10
2019-01-24T18:14:21.759Z,-0.20
2019-01-24T18:16:49.200Z,-0.20
2019-01-24T18:19:16.599Z,-0.20
2019-01-24T18:21:44.023Z,-0.20
2019-01-24T18:24:11.465Z,-0.10
2019-01-24T18:26:39.227Z,-0.10
2019-01-24T18:29:06.830Z,-0.10
2019-01-24T18:31:34.367Z,-0.20
2019-01-24T18:34:01.881Z,-0.30
2019-01-24T18:36:29.642Z,-0.40
2019-01-24T18:38:57.048Z,-0.40
2019-01-24T18:41:24.452Z,-0.40
2019-01-24T18:43:52.532Z,-0.40
2019-01-24T18:46:19.922Z,-0.40
2019-01-24T18:48:47.337Z,-0.30
2019-01-24T18:51:14.914Z,-0.30
2019-01-24T18:53:42.313Z,-0.30
2019-01-24T18:56:09.714Z,-0.30
2019-01-24T18:58:37.303Z,-0.30
2019-01-24T19:01:04.814Z,-0.30
2019-01-24T19:03:32.191Z,-0.20
2019-01-24T19:05:59.889Z,-0.20
2019-01-24T19:08:27.399Z,-0.20
2019-01-24T19:10:54.792Z,-0.20
2019-01-24T19:13:22.378Z,-0.20
2019-01-24T19:15:50.095Z,-0.20
2019-01-24T19:18:17.498Z,-0.20
2019-01-24T19:20:45.217Z,-0.20
2019-01-24T19:23:12.607Z,-0.30
2019-01-24T19:25:40.151Z,-0.40
2019-01-24T19:28:10.079Z,-0.40
2019-01-24T19:30:37.466Z,-0.50
2019-01-24T19:33:05.063Z,-0.50
2019-01-24T19:35:32.802Z,-0.50
2019-01-24T19:38:00.207Z,-0.50
2019-01-24T19:40:27.704Z,-0.50
2019-01-24T19:42:55.136Z,-0.50
2019-01-24T19:45:23.415Z,-0.50
2019-01-24T19:47:51.016Z,-0.50
2019-01-24T19:50:20.199Z,-0.50
2019-01-24T19:52:47.907Z,-0.60
2019-01-24T19:55:15.323Z,-0.60
2019-01-24T19:57:43.124Z,-0.60
2019-01-24T20:00:15.807Z,-0.50
2019-01-24T20:02:43.319Z,-0.40
2019-01-24T20:05:12.044Z,-0.50
2019-01-24T20:07:39.440Z,-0.50
2019-01-24T20:10:09.922Z,-0.50
2019-01-24T20:12:37.399Z,-0.50
2019-01-24T20:15:06.898Z,-0.60
2019-01-24T20:17:34.418Z,-0.60
2019-01-24T20:20:01.852Z,-0.60
2019-01-24T20:22:29.239Z,-0.50
2019-01-24T20:24:56.670Z,-0.50
2019-01-24T20:27:24.269Z,-0.50
2019-01-24T20:29:51.667Z,-0.60
2019-01-24T20:32:19.085Z,-0.50
2019-01-24T20:34:46.522Z,-0.50
2019-01-24T20:37:15.455Z,-0.40
2019-01-24T20:39:42.860Z,-0.50
2019-01-24T20:42:10.521Z,-0.60
2019-01-24T20:44:38.263Z,-0.60
2019-01-24T20:47:05.714Z,-0.70
2019-01-24T20:49:33.272Z,-0.80
2019-01-24T20:52:00.670Z,-0.80
2019-01-24T20:54:28.064Z,-0.70
2019-01-24T20:56:55.498Z,-0.70
2019-01-24T20:59:22.906Z,-0.70
2019-01-24T21:01:50.311Z,-0.60
2019-01-24T21:04:19.852Z,-0.50
2019-01-24T21:06:47.251Z,-0.50
2019-01-24T21:09:15.060Z,-0.60
2019-01-24T21:11:42.984Z,-0.70
2019-01-24T21:14:10.473Z,-0.70
2019-01-24T21:16:37.999Z,-0.70
2019-01-24T21:19:05.476Z,-0.60
2019-01-24T21:21:32.914Z,-0.60
2019-01-24T21:24:00.303Z,-0.60
2019-01-24T21:26:27.959Z,-0.60
2019-01-24T21:28:55.480Z,-0.60
2019-01-24T21:31:24.772Z,-0.60
2019-01-24T21:33:52.178Z,-0.70
2019-01-24T21:36:22.029Z,-0.70
2019-01-24T21:38:49.538Z,-0.70
2019-01-24T21:41:17.447Z,-0.60
2019-01-24T21:43:44.951Z,-0.60
2019-01-24T21:46:12.354Z,-0.70
2019-01-24T21:48:40.031Z,-0.70
2019-01-24T21:51:11.351Z,-0.70
2019-01-24T21:53:36.631Z,-0.60
2019-01-24T21:56:04.367Z,-0.70
2019-01-24T21:58:32.090Z,-0.60
2019-01-24T22:00:59.495Z,-0.60
2019-01-24T22:03:27.901Z,-0.60
2019-01-24T22:05:55.383Z,-0.60
2019-01-24T22:08:22.791Z,-0.60
2019-01-24T22:10:50.466Z,-0.60
2019-01-24T22:13:17.863Z,-0.50
2019-01-24T22:15:45.256Z,-0.60
2019-01-24T22:18:12.905Z,-0.50
2019-01-24T22:20:40.295Z,-0.60
2019-01-24T22:23:07.684Z,-0.50
2019-01-24T22:25:35.651Z,-0.50
2019-01-24T22:28:03.750Z,-0.60
2019-01-24T22:30:42.835Z,-0.50
2019-01-24T22:33:10.244Z,-0.60
2019-01-24T22:35:37.798Z,-0.60
2019-01-24T22:38:06.929Z,-0.50
2019-01-24T22:40:34.318Z,-0.50
2019-01-24T22:43:01.723Z,-0.50
2019-01-24T22:45:29.143Z,-0.50
2019-01-24T22:47:56.548Z,-0.50
2019-01-24T22:50:23.935Z,-0.50
2019-01-24T22:52:51.385Z,-0.60
2019-01-24T22:55:18.999Z,-0.50
2019-01-24T22:57:46.423Z,-0.50
2019-01-24T23:00:55.887Z,-0.50
2019-01-24T23:03:32.897Z,-0.40
2019-01-24T23:06:00.347Z,-0.50
2019-01-24T23:08:27.730Z,-0.40
2019-01-24T23:10:55.330Z,-0.40
2019-01-24T23:13:22.775Z,-0.40
2019-01-24T23:15:50.159Z,-0.50
2019-01-24T23:18:17.562Z,-0.60
2019-01-24T23:20:45.007Z,-0.50
2019-01-24T23:23:12.407Z,-0.60
2019-01-24T23:25:39.821Z,-0.60
2019-01-24T23:28:07.386Z,-0.50
2019-01-24T23:30:34.881Z,-0.40
2019-01-24T23:33:03.851Z,-0.40
2019-01-24T23:35:31.783Z,-0.40
2019-01-24T23:37:59.183Z,-0.40
2019-01-24T23:40:26.987Z,-0.30
2019-01-24T23:42:54.438Z,-0.40
2019-01-24T23:45:21.842Z,-0.50
2019-01-24T23:47:49.240Z,-0.50
2019-01-24T23:50:17.026Z,-0.50
2019-01-24T23:52:44.434Z,-0.50
2019-01-24T23:55:11.823Z,-0.60
2019-01-24T23:57:39.402Z,-0.70
